Time;durP1;ratioP1;P1;durP2;ratioP2;P2;SDS_P1;SDS_P2;PMS_P1;PMS_P2;Temp;Humidity;BMP_temperature;BMP_pressure;BME280_temperature;BME280_humidity;BME280_pressure;Samples;Min_cycle;Max_cycle;Signal;HPM_P1;HPM_P2
2022/04/19 00:01:20;;;;;;;12.18;8.73;;;6.20;99.90;;;;;;5247151;28;20107;-69
2022/04/19 00:03:51;;;;;;;8.50;5.28;;;6.40;99.90;;;;;;5248495;28;20111;-69
2022/04/19 00:06:22;;;;;;;10.50;5.15;;;6.40;99.90;;;;;;5247696;28;20111;-69
2022/04/19 00:08:52;;;;;;;10.43;5.40;;;6.00;99.90;;;;;;5246971;28;20033;-69
2022/04/19 00:11:23;;;;;;;7.10;3.65;;;6.20;99.90;;;;;;5248298;28;20027;-69
2022/04/19 00:13:54;;;;;;;8.88;4.00;;;6.10;99.90;;;;;;5248181;28;20081;-69
2022/04/19 00:16:25;;;;;;;11.20;4.63;;;6.20;99.90;;;;;;5246957;28;20069;-69
2022/04/19 00:18:56;;;;;;;11.10;5.53;;;6.10;99.90;;;;;;5247161;28;20028;-69
2022/04/19 00:21:27;;;;;;;7.03;4.63;;;5.90;99.90;;;;;;5246740;28;20016;-69
2022/04/19 00:23:58;;;;;;;8.30;3.92;;;5.90;99.90;;;;;;5246882;28;20021;-69
2022/04/19 00:26:29;;;;;;;8.57;4.95;;;6.00;99.90;;;;;;5248127;28;20029;-69
2022/04/19 00:29:00;;;;;;;8.18;3.70;;;6.20;99.90;;;;;;5247939;28;20563;-69
2022/04/19 00:31:31;;;;;;;8.75;4.15;;;6.10;99.90;;;;;;5248314;28;20020;-69
2022/04/19 00:34:01;;;;;;;11.00;4.18;;;6.10;99.90;;;;;;5246750;28;20539;-69
2022/04/19 00:36:32;;;;;;;12.13;4.50;;;6.00;99.90;;;;;;5247991;28;20448;-69
2022/04/19 00:39:03;;;;;;;11.55;6.22;;;6.10;99.90;;;;;;5249230;28;20066;-69
2022/04/19 00:41:34;;;;;;;8.98;4.45;;;6.00;99.90;;;;;;5251945;28;20028;-69
2022/04/19 00:44:05;;;;;;;18.92;8.60;;;6.00;99.90;;;;;;5252088;28;20029;-70
2022/04/19 00:46:36;;;;;;;12.75;6.72;;;6.00;99.90;;;;;;5252177;28;20075;-69
2022/04/19 00:49:06;;;;;;;21.33;14.23;;;6.00;99.90;;;;;;5252094;28;20081;-69
2022/04/19 00:51:37;;;;;;;11.90;6.05;;;6.10;99.90;;;;;;5250752;28;20472;-69
2022/04/19 00:54:08;;;;;;;7.63;4.00;;;5.90;99.90;;;;;;5252060;28;20086;-69
2022/04/19 00:56:40;;;;;;;10.32;5.32;;;6.00;99.90;;;;;;5252150;28;20017;-69
2022/04/19 00:59:11;;;;;;;11.65;5.40;;;6.00;99.90;;;;;;5251803;28;20103;-69
2022/04/19 01:01:42;;;;;;;11.00;5.55;;;5.80;99.90;;;;;;5251911;28;20099;-69
2022/04/19 01:04:12;;;;;;;11.80;5.43;;;5.90;99.90;;;;;;5251818;28;20491;-69
2022/04/19 01:06:44;;;;;;;12.98;6.28;;;6.00;99.90;;;;;;5251481;28;20392;-69
2022/04/19 01:09:14;;;;;;;10.25;6.85;;;6.10;99.90;;;;;;5250283;28;20474;-69
2022/04/19 01:14:37;;;;;;;9.07;5.13;;;5.90;99.90;;;;;;5251645;28;20388;-70
2022/04/19 01:17:08;;;;;;;7.45;4.20;;;6.00;99.90;;;;;;5251293;28;20028;-69
2022/04/19 01:19:39;;;;;;;8.27;4.43;;;5.90;99.90;;;;;;5251512;28;20039;-69
2022/04/19 01:22:12;;;;;;;12.60;5.15;;;6.00;99.90;;;;;;5251420;28;20480;-69
2022/04/19 01:24:43;;;;;;;13.23;4.55;;;5.90;99.90;;;;;;5251473;28;20017;-69
2022/04/19 01:27:14;;;;;;;12.70;6.07;;;5.70;99.90;;;;;;5251272;28;20139;-70
2022/04/19 01:29:46;;;;;;;10.45;5.80;;;5.80;99.90;;;;;;5249971;28;20021;-69
2022/04/19 01:32:17;;;;;;;9.52;4.63;;;5.90;99.90;;;;;;5251149;28;20033;-69
2022/04/19 01:34:48;;;;;;;10.40;5.55;;;5.80;99.90;;;;;;5251023;28;20495;-69
2022/04/19 01:37:18;;;;;;;9.30;4.57;;;5.80;99.90;;;;;;5250964;28;20041;-69
2022/04/19 01:42:39;;;;;;;6.10;3.28;;;5.90;99.90;;;;;;5251148;28;20028;-69
2022/04/19 01:45:10;;;;;;;9.73;4.07;;;5.80;99.90;;;;;;5250925;28;20020;-69
2022/04/19 01:47:41;;;;;;;7.97;3.97;;;5.80;99.90;;;;;;5250764;28;20045;-69
2022/04/19 01:50:14;;;;;;;14.15;3.22;;;5.80;99.90;;;;;;5250147;28;20099;-69
2022/04/19 01:52:47;;;;;;;8.65;3.40;;;5.80;99.90;;;;;;5250724;28;20119;-69
2022/04/19 01:55:19;;;;;;;7.07;3.47;;;5.60;99.90;;;;;;5250654;28;20021;-69
2022/04/19 01:57:54;;;;;;;7.18;3.88;;;5.80;99.90;;;;;;5250950;28;20044;-69
2022/04/19 02:00:26;;;;;;;9.90;4.55;;;5.80;99.90;;;;;;5249540;28;20028;-69
2022/04/19 02:02:58;;;;;;;10.18;4.35;;;5.90;99.90;;;;;;5249133;28;20512;-69
2022/04/19 02:05:28;;;;;;;9.93;4.90;;;5.80;99.90;;;;;;5250281;28;20040;-69
2022/04/19 02:07:59;;;;;;;10.52;5.68;;;5.70;99.90;;;;;;5249175;28;20045;-69
2022/04/19 02:10:30;;;;;;;10.00;4.85;;;5.70;99.90;;;;;;5250385;28;20017;-69
2022/04/19 02:13:01;;;;;;;8.05;4.78;;;5.70;99.90;;;;;;5249170;28;20097;-70
2022/04/19 02:15:32;;;;;;;8.68;5.18;;;5.70;99.90;;;;;;5249182;28;20027;-69
2022/04/19 02:18:04;;;;;;;14.90;5.10;;;5.80;99.90;;;;;;5250144;28;20385;-69
2022/04/19 02:20:35;;;;;;;9.93;5.60;;;5.50;99.90;;;;;;5250308;28;20028;-69
2022/04/19 02:23:05;;;;;;;11.85;5.07;;;5.60;99.90;;;;;;5250301;28;20028;-69
2022/04/19 02:25:37;;;;;;;12.20;5.20;;;5.70;99.90;;;;;;5250273;28;20107;-69
2022/04/19 02:28:10;;;;;;;8.93;4.28;;;5.70;99.90;;;;;;5249932;28;20047;-69
2022/04/19 02:30:41;;;;;;;9.13;4.65;;;5.60;99.90;;;;;;5250246;28;20421;-69
2022/04/19 02:33:11;;;;;;;11.73;4.50;;;5.80;99.90;;;;;;5249999;28;20059;-69
2022/04/19 02:35:42;;;;;;;8.30;3.63;;;5.80;99.90;;;;;;5249949;28;20021;-69
2022/04/19 02:38:13;;;;;;;10.32;5.40;;;5.70;99.90;;;;;;5250008;28;20032;-69
2022/04/19 02:40:44;;;;;;;11.65;4.97;;;5.80;99.90;;;;;;5249967;28;20029;-69
2022/04/19 02:43:16;;;;;;;14.60;5.53;;;5.80;99.90;;;;;;5248386;28;20059;-69
2022/04/19 02:45:47;;;;;;;12.32;5.60;;;5.80;99.90;;;;;;5248602;28;20032;-68
2022/04/19 02:48:19;;;;;;;13.65;7.47;;;5.90;99.90;;;;;;5249417;28;20041;-69
2022/04/19 02:50:50;;;;;;;16.23;7.22;;;5.70;99.90;;;;;;5249627;28;20025;-69
2022/04/19 02:53:20;;;;;;;19.38;7.75;;;5.80;99.90;;;;;;5249937;28;20495;-69
2022/04/19 02:55:51;;;;;;;21.20;10.40;;;5.70;99.90;;;;;;5249564;28;20013;-69
2022/04/19 02:58:25;;;;;;;12.90;5.90;;;5.60;99.90;;;;;;5249451;28;20025;-69
2022/04/19 03:00:55;;;;;;;15.30;6.95;;;5.60;99.90;;;;;;5249487;28;20460;-69
2022/04/19 03:03:29;;;;;;;17.90;6.03;;;5.60;99.90;;;;;;5249783;28;20027;-69
2022/04/19 03:06:00;;;;;;;13.75;5.97;;;5.70;99.90;;;;;;5247833;28;20048;-69
2022/04/19 03:08:35;;;;;;;16.67;7.93;;;5.70;99.90;;;;;;5249227;28;20067;-69
2022/04/19 03:11:06;;;;;;;19.35;8.88;;;5.90;99.90;;;;;;5249366;28;20024;-69
2022/04/19 03:13:37;;;;;;;24.10;9.63;;;5.70;99.90;;;;;;5249195;28;20473;-69
2022/04/19 03:16:13;;;;;;;19.27;8.10;;;5.90;99.90;;;;;;5249163;28;20032;-68
2022/04/19 03:18:44;;;;;;;14.07;6.97;;;5.80;99.90;;;;;;5249154;28;20031;-69
2022/04/19 03:21:14;;;;;;;19.90;10.18;;;5.80;99.90;;;;;;5247760;28;20028;-69
2022/04/19 03:29:24;;;;;;;8.85;5.55;;;5.90;99.90;;;;;;5248949;28;20092;-68
2022/04/19 03:31:55;;;;;;;11.80;6.30;;;5.60;99.90;;;;;;5248942;28;20036;-68
2022/04/19 03:34:26;;;;;;;12.82;5.50;;;5.80;99.90;;;;;;5248565;28;20033;-69
2022/04/19 03:36:56;;;;;;;8.77;4.53;;;5.80;99.90;;;;;;5248853;28;20032;-69
2022/04/19 03:39:27;;;;;;;12.52;5.70;;;5.60;99.90;;;;;;5247597;28;20031;-68
2022/04/19 03:41:58;;;;;;;12.98;5.90;;;5.70;99.90;;;;;;5248651;28;20013;-69
2022/04/19 03:44:32;;;;;;;11.15;5.55;;;5.70;99.90;;;;;;5248601;28;20077;-69
2022/04/19 03:47:09;;;;;;;9.25;5.82;;;5.70;99.90;;;;;;5248538;28;20033;-69
2022/04/19 03:49:41;;;;;;;11.75;6.30;;;5.90;99.90;;;;;;5248578;28;20063;-68
2022/04/19 03:52:12;;;;;;;11.95;5.70;;;5.90;99.90;;;;;;5248580;28;20057;-69
2022/04/19 03:54:43;;;;;;;14.88;7.70;;;5.60;99.90;;;;;;5249055;28;20025;-69
2022/04/19 03:57:14;;;;;;;11.80;7.32;;;6.00;99.90;;;;;;5249003;28;20052;-69
2022/04/19 03:59:45;;;;;;;10.07;5.63;;;5.60;99.90;;;;;;5248439;28;20032;-69
2022/04/19 04:02:16;;;;;;;14.07;5.32;;;5.60;99.90;;;;;;5247236;28;20107;-69
2022/04/19 04:04:47;;;;;;;13.27;6.63;;;5.90;99.90;;;;;;5248174;28;20579;-69
2022/04/19 04:07:18;;;;;;;11.82;7.15;;;5.90;99.90;;;;;;5247080;28;20063;-68
2022/04/19 04:09:49;;;;;;;10.77;5.93;;;5.90;99.90;;;;;;5248038;28;20028;-69
2022/04/19 04:12:20;;;;;;;13.40;4.88;;;5.90;99.90;;;;;;5247125;28;20020;-69
2022/04/19 04:14:51;;;;;;;9.57;5.70;;;5.60;99.90;;;;;;5247870;28;20476;-69
2022/04/19 04:17:22;;;;;;;8.50;5.05;;;5.80;99.90;;;;;;5246858;28;20541;-68
2022/04/19 04:19:52;;;;;;;9.05;4.90;;;5.70;99.90;;;;;;5248221;28;20103;-69
2022/04/19 04:22:23;;;;;;;8.57;4.80;;;5.70;99.90;;;;;;5249312;28;20072;-69
2022/04/19 04:24:54;;;;;;;5.75;4.25;;;5.80;99.90;;;;;;5247187;28;20532;-91
2022/04/19 04:27:25;;;;;;;9.30;5.00;;;5.80;99.90;;;;;;5247971;28;20028;-69
2022/04/19 04:29:56;;;;;;;9.95;5.00;;;5.90;99.90;;;;;;5249234;28;20075;-68
2022/04/19 04:32:26;;;;;;;7.63;4.45;;;5.80;99.90;;;;;;5246847;28;20057;-83
2022/04/19 04:34:57;;;;;;;8.82;5.30;;;5.80;99.90;;;;;;5248075;28;20101;-71
2022/04/19 04:37:28;;;;;;;12.60;6.03;;;5.90;99.90;;;;;;5247546;28;20029;-69
2022/04/19 04:39:59;;;;;;;11.23;5.15;;;5.80;99.90;;;;;;5248008;28;20031;-69
2022/04/19 04:42:30;;;;;;;10.75;5.20;;;5.90;99.90;;;;;;5246831;28;20116;-69
2022/04/19 04:45:00;;;;;;;8.18;5.28;;;5.90;99.90;;;;;;5248286;28;20035;-69
2022/04/19 04:50:20;;;;;;;9.10;5.13;;;5.70;99.90;;;;;;5248094;28;20036;-69
2022/04/19 04:52:53;;;;;;;7.38;4.70;;;5.80;99.90;;;;;;5248326;28;20036;-69
2022/04/19 04:55:24;;;;;;;12.73;6.95;;;5.70;99.90;;;;;;5247837;28;20035;-68
2022/04/19 04:57:56;;;;;;;8.13;4.22;;;5.80;99.90;;;;;;5247806;28;20028;-69
2022/04/19 05:00:27;;;;;;;6.60;4.82;;;5.70;99.90;;;;;;5247759;28;20436;-69
2022/04/19 05:02:58;;;;;;;9.00;4.47;;;5.80;99.90;;;;;;5247790;28;20037;-68
2022/04/19 05:05:29;;;;;;;9.60;6.00;;;5.90;99.90;;;;;;5247585;28;20476;-69
2022/04/19 05:08:03;;;;;;;8.20;5.25;;;6.10;99.90;;;;;;5247684;28;20093;-69
2022/04/19 05:10:34;;;;;;;8.43;5.65;;;6.00;99.90;;;;;;5247606;28;20427;-69
2022/04/19 05:13:05;;;;;;;12.05;6.97;;;5.80;99.90;;;;;;5247801;28;20032;-69
2022/04/19 05:15:36;;;;;;;11.88;5.95;;;6.00;99.90;;;;;;5247572;28;20536;-69
2022/04/19 05:18:06;;;;;;;8.75;6.18;;;6.10;99.90;;;;;;5247663;28;20092;-69
2022/04/19 05:20:37;;;;;;;16.05;5.32;;;6.20;99.90;;;;;;5247762;28;20029;-86
2022/04/19 05:23:09;;;;;;;9.57;5.35;;;5.90;99.90;;;;;;5248084;28;20039;-89
2022/04/19 05:25:40;;;;;;;9.73;5.32;;;6.10;99.90;;;;;;5248159;28;20024;-68
2022/04/19 05:28:10;;;;;;;10.15;7.13;;;6.10;99.90;;;;;;5250946;28;20058;-69
2022/04/19 05:30:41;;;;;;;8.35;5.60;;;6.20;99.90;;;;;;5251185;28;20013;-68
2022/04/19 05:33:12;;;;;;;9.60;5.80;;;6.10;99.90;;;;;;5251126;28;20368;-68
2022/04/19 05:35:43;;;;;;;10.05;6.93;;;6.20;99.90;;;;;;5251096;28;20078;-68
2022/04/19 05:38:14;;;;;;;11.20;6.78;;;6.40;99.90;;;;;;5251180;28;20025;-80
2022/04/19 05:40:44;;;;;;;16.10;8.75;;;6.30;99.90;;;;;;5251135;28;20044;-68
2022/04/19 05:43:15;;;;;;;10.85;6.70;;;6.30;99.90;;;;;;5251325;28;20086;-68
2022/04/19 05:45:47;;;;;;;10.35;6.35;;;6.10;99.90;;;;;;5251205;28;20020;-68
2022/04/19 05:48:18;;;;;;;9.95;6.55;;;6.10;99.90;;;;;;5250926;28;20103;-88
2022/04/19 05:50:49;;;;;;;11.55;7.32;;;6.30;99.90;;;;;;5250768;28;20039;-68
2022/04/19 05:53:20;;;;;;;9.43;6.22;;;6.30;99.90;;;;;;5250661;28;20025;-68
2022/04/19 05:55:50;;;;;;;9.98;6.00;;;6.20;99.90;;;;;;5249665;28;20067;-68
2022/04/19 05:58:21;;;;;;;8.45;5.30;;;6.30;99.90;;;;;;5250736;28;20093;-68
2022/04/19 06:00:52;;;;;;;13.82;6.65;;;6.10;99.90;;;;;;5250910;28;20058;-68
2022/04/19 06:06:14;;;;;;;10.10;6.13;;;6.10;99.90;;;;;;5250234;28;20131;-68
2022/04/19 06:08:44;;;;;;;8.60;5.63;;;6.30;99.90;;;;;;5250459;28;20039;-68
2022/04/19 06:11:15;;;;;;;8.52;6.28;;;6.20;99.90;;;;;;5250394;28;20028;-68
2022/04/19 06:13:46;;;;;;;12.48;6.90;;;6.40;99.90;;;;;;5250479;28;20067;-68
2022/04/19 06:16:17;;;;;;;12.65;6.97;;;6.50;99.90;;;;;;5250466;28;20063;-68
2022/04/19 06:18:48;;;;;;;12.23;7.32;;;6.40;99.90;;;;;;5250544;28;20060;-68
2022/04/19 06:21:19;;;;;;;12.50;6.50;;;6.50;99.90;;;;;;5250394;28;20060;-86
2022/04/19 06:23:50;;;;;;;13.73;6.80;;;6.60;99.90;;;;;;5250294;28;20028;-90
2022/04/19 06:26:21;;;;;;;14.18;6.82;;;6.40;99.90;;;;;;5249920;28;20078;-69
2022/04/19 06:28:52;;;;;;;11.30;6.72;;;6.30;99.90;;;;;;5249744;28;20040;-68
2022/04/19 06:31:22;;;;;;;7.53;5.53;;;6.30;99.90;;;;;;5250065;28;20055;-68
2022/04/19 06:33:53;;;;;;;9.00;6.25;;;6.20;99.90;;;;;;5248604;28;20056;-88
2022/04/19 06:36:24;;;;;;;8.73;6.35;;;6.40;99.90;;;;;;5249455;28;20031;-88
2022/04/19 06:38:55;;;;;;;12.95;7.80;;;6.30;99.90;;;;;;5249576;28;20040;-68
2022/04/19 06:41:26;;;;;;;11.07;7.10;;;6.30;99.90;;;;;;5248337;28;20551;-69
2022/04/19 06:43:59;;;;;;;13.38;6.63;;;6.20;99.90;;;;;;5249512;28;20033;-69
2022/04/19 06:46:30;;;;;;;14.30;8.43;;;6.30;99.90;;;;;;5248125;28;20028;-69
2022/04/19 06:49:01;;;;;;;12.57;6.90;;;6.40;99.90;;;;;;5249362;28;20055;-68
2022/04/19 06:51:32;;;;;;;10.98;7.55;;;6.40;99.90;;;;;;5249310;28;20017;-88
2022/04/19 06:54:03;;;;;;;9.68;6.18;;;6.40;99.90;;;;;;5247837;28;20024;-68
2022/04/19 06:56:33;;;;;;;14.20;9.70;;;6.30;99.90;;;;;;5249427;28;20024;-69
2022/04/19 06:59:04;;;;;;;10.65;7.50;;;6.50;99.90;;;;;;5247780;28;20028;-69
2022/04/19 07:01:38;;;;;;;14.27;7.63;;;6.30;99.90;;;;;;5249090;28;20025;-69
2022/04/19 07:04:09;;;;;;;11.00;6.35;;;6.30;99.90;;;;;;5247933;28;20039;-69
2022/04/19 07:06:40;;;;;;;8.35;5.60;;;6.30;99.90;;;;;;5249114;28;20036;-69
2022/04/19 07:09:11;;;;;;;7.22;5.00;;;6.30;99.90;;;;;;5248829;28;20074;-69
2022/04/19 07:11:41;;;;;;;7.07;4.60;;;6.50;99.90;;;;;;5250060;28;20017;-68
2022/04/19 07:14:12;;;;;;;9.88;5.43;;;6.50;99.90;;;;;;5248808;28;20025;-90
2022/04/19 07:16:43;;;;;;;9.07;5.60;;;6.60;99.90;;;;;;5248548;28;20020;-69
2022/04/19 07:19:14;;;;;;;12.07;5.22;;;6.60;99.90;;;;;;5248838;28;20039;-69
2022/04/19 07:27:23;;;;;;;6.68;4.05;;;6.40;99.90;;;;;;5248674;28;20491;-68
2022/04/19 07:29:54;;;;;;;8.80;4.60;;;6.30;99.90;;;;;;5248909;28;20028;-68
2022/04/19 07:32:25;;;;;;;10.23;5.25;;;6.10;99.90;;;;;;5248841;28;20024;-69
2022/04/19 07:34:56;;;;;;;10.50;4.60;;;6.20;99.90;;;;;;5248591;28;20024;-69
2022/04/19 07:37:28;;;;;;;9.63;5.40;;;6.10;99.90;;;;;;5249026;28;20032;-69
2022/04/19 07:39:59;;;;;;;13.43;5.20;;;6.10;99.90;;;;;;5249116;28;20086;-69
2022/04/19 07:42:30;;;;;;;13.77;5.97;;;6.20;99.90;;;;;;5248234;28;20024;-69
2022/04/19 07:45:02;;;;;;;8.82;5.53;;;6.20;99.90;;;;;;5248121;28;20044;-69
2022/04/19 07:47:33;;;;;;;7.15;4.70;;;6.00;99.90;;;;;;5247876;28;20068;-69
2022/04/19 07:50:04;;;;;;;9.10;5.40;;;6.10;99.90;;;;;;5247329;28;20028;-69
2022/04/19 07:52:35;;;;;;;11.52;6.32;;;6.10;99.90;;;;;;5247979;28;20020;-69
2022/04/19 07:55:06;;;;;;;7.90;5.43;;;6.30;99.90;;;;;;5247813;28;20025;-69
2022/04/19 07:57:37;;;;;;;8.75;5.28;;;6.50;99.90;;;;;;5247865;28;20150;-69
2022/04/19 08:00:08;;;;;;;12.38;5.97;;;6.60;99.90;;;;;;5248159;28;20107;-91
2022/04/19 08:02:40;;;;;;;7.72;5.18;;;6.70;99.90;;;;;;5248791;28;20066;-85
2022/04/19 08:05:10;;;;;;;13.05;4.88;;;6.90;99.90;;;;;;5248879;28;20075;-68
2022/04/19 08:07:42;;;;;;;10.27;4.72;;;6.70;99.90;;;;;;5247291;28;20400;-68
2022/04/19 08:10:13;;;;;;;9.20;4.57;;;6.70;99.90;;;;;;5248399;28;20021;-86
2022/04/19 08:12:44;;;;;;;7.22;4.20;;;6.60;99.90;;;;;;5248427;28;20021;-69
2022/04/19 08:15:15;;;;;;;9.85;5.00;;;6.70;99.90;;;;;;5247950;28;20103;-69
2022/04/19 08:17:46;;;;;;;13.00;4.85;;;7.00;99.90;;;;;;5241678;28;20021;-70
2022/04/19 08:20:17;;;;;;;8.77;5.05;;;7.10;99.90;;;;;;5236042;28;20041;-73
2022/04/19 08:22:47;;;;;;;8.80;4.25;;;7.10;99.90;;;;;;5227318;28;20021;-84
2022/04/19 08:25:18;;;;;;;7.93;4.60;;;7.10;99.90;;;;;;5227285;28;20449;-84
2022/04/19 08:27:51;;;;;;;7.25;4.50;;;7.10;99.90;;;;;;5225559;28;20041;-74
2022/04/19 08:30:22;;;;;;;10.10;4.22;;;7.00;99.90;;;;;;5227043;28;20029;-69
2022/04/19 08:32:53;;;;;;;7.95;4.45;;;6.60;99.90;;;;;;5226964;28;20025;-78
2022/04/19 08:35:24;;;;;;;6.93;4.60;;;6.80;99.90;;;;;;5226828;28;20074;-72
2022/04/19 08:37:55;;;;;;;6.20;4.10;;;6.80;99.90;;;;;;5240423;28;20033;-83
2022/04/19 08:40:26;;;;;;;8.18;4.75;;;6.90;99.90;;;;;;5232511;28;20371;-72
2022/04/19 08:42:57;;;;;;;10.77;4.65;;;6.80;99.90;;;;;;5233366;28;20104;-69
2022/04/19 08:45:28;;;;;;;8.10;4.55;;;7.00;99.90;;;;;;5233282;28;20116;-86
2022/04/19 08:48:00;;;;;;;7.70;4.30;;;7.00;99.90;;;;;;5233514;28;20039;-69
2022/04/19 08:50:31;;;;;;;8.05;4.55;;;7.00;99.90;;;;;;5233054;28;20041;-70
2022/04/19 08:58:40;;;;;;;12.80;4.95;;;7.40;99.90;;;;;;5238542;28;20123;-70
2022/04/19 09:01:11;;;;;;;7.82;4.70;;;7.30;99.90;;;;;;5230796;28;20533;-89
2022/04/19 09:03:42;;;;;;;10.85;4.95;;;7.30;99.90;;;;;;5239977;28;20064;-69
2022/04/19 09:06:13;;;;;;;11.93;5.55;;;7.20;99.90;;;;;;5246936;28;20485;-68
2022/04/19 09:09:07;;;;;;;6.63;4.28;;;7.50;99.90;;;;;;5230933;28;20044;-69
2022/04/19 09:11:38;;;;;;;6.30;4.65;;;7.40;99.90;;;;;;5230942;28;20092;-69
2022/04/19 09:14:09;;;;;;;7.28;4.53;;;7.50;99.90;;;;;;5230663;28;20123;-69
2022/04/19 09:16:40;;;;;;;5.72;3.83;;;7.20;99.90;;;;;;5242732;28;20036;-69
2022/04/19 09:19:28;;;;;;;7.93;4.90;;;7.20;99.90;;;;;;5230887;28;20020;-68
2022/04/19 09:22:00;;;;;;;8.18;4.70;;;7.20;99.90;;;;;;5237967;28;20032;-69
2022/04/19 09:24:33;;;;;;;7.82;4.80;;;7.30;99.90;;;;;;5240377;28;20031;-68
2022/04/19 09:27:04;;;;;;;7.30;5.30;;;7.50;99.90;;;;;;5243167;28;20033;-68
2022/04/19 09:29:35;;;;;;;8.70;5.15;;;7.40;99.90;;;;;;5230604;28;20040;-68
2022/04/19 09:32:12;;;;;;;6.57;4.05;;;7.40;99.90;;;;;;5230610;28;20040;-68
2022/04/19 09:34:48;;;;;;;7.03;4.13;;;7.60;99.90;;;;;;5236803;28;20028;-83
2022/04/19 09:37:19;;;;;;;8.77;4.53;;;7.50;99.90;;;;;;5239888;28;20031;-69
2022/04/19 09:39:53;;;;;;;8.48;4.82;;;7.40;99.90;;;;;;5235480;28;20472;-70
2022/04/19 09:42:26;;;;;;;7.07;4.20;;;7.40;99.90;;;;;;5235419;28;20029;-81
2022/04/19 09:44:57;;;;;;;6.47;3.90;;;7.50;99.90;;;;;;5248417;28;20081;-82
2022/04/19 09:47:28;;;;;;;10.23;4.50;;;7.40;99.90;;;;;;5248339;28;20468;-79
2022/04/19 09:50:00;;;;;;;7.65;4.28;;;7.50;99.90;;;;;;5249593;28;20020;-75
2022/04/19 09:52:33;;;;;;;9.20;4.40;;;7.90;99.90;;;;;;5248720;28;20497;-68
2022/04/19 09:55:08;;;;;;;7.90;4.65;;;7.70;99.90;;;;;;5248131;28;20032;-69
2022/04/19 09:57:39;;;;;;;8.23;4.72;;;7.90;99.90;;;;;;5250762;28;20621;-69
2022/04/19 10:00:13;;;;;;;9.00;4.45;;;8.20;99.90;;;;;;5249488;28;20376;-69
2022/04/19 10:08:24;;;;;;;8.30;4.30;;;7.70;99.90;;;;;;5250638;28;20036;-69
2022/04/19 10:10:58;;;;;;;10.68;5.13;;;7.70;99.90;;;;;;5250523;28;20472;-77
2022/04/19 10:13:29;;;;;;;8.93;4.07;;;7.70;99.90;;;;;;5248970;28;20028;-68
2022/04/19 10:16:04;;;;;;;8.63;4.57;;;7.30;99.90;;;;;;5250355;28;20028;-69
2022/04/19 10:18:35;;;;;;;6.95;4.00;;;7.40;99.90;;;;;;5250307;28;20031;-69
2022/04/19 10:21:09;;;;;;;11.18;4.93;;;7.50;99.90;;;;;;5250253;28;20021;-68
2022/04/19 10:23:41;;;;;;;8.15;5.35;;;7.90;99.90;;;;;;5250375;28;20357;-68
2022/04/19 10:26:13;;;;;;;7.28;3.90;;;7.90;99.90;;;;;;5250319;28;20107;-68
2022/04/19 10:28:45;;;;;;;8.27;3.80;;;8.00;99.90;;;;;;5249957;28;20028;-69
2022/04/19 10:31:25;;;;;;;6.85;3.47;;;7.90;99.90;;;;;;5249067;28;20021;-69
2022/04/19 10:34:06;;;;;;;11.48;3.35;;;8.00;99.90;;;;;;5249986;28;20483;-69
2022/04/19 10:36:38;;;;;;;6.18;3.45;;;7.90;99.90;;;;;;5249802;28;20172;-68
2022/04/19 10:39:15;;;;;;;4.75;2.83;;;7.90;99.90;;;;;;5249992;28;20063;-68
2022/04/19 10:41:55;;;;;;;6.93;3.20;;;7.70;99.90;;;;;;5249946;28;20476;-68
2022/04/19 10:44:45;;;;;;;8.68;3.40;;;7.60;99.90;;;;;;5250050;28;20024;-69
2022/04/19 10:47:18;;;;;;;7.90;3.42;;;7.50;99.90;;;;;;5249748;28;20045;-69
2022/04/19 10:50:01;;;;;;;6.72;3.80;;;7.60;99.90;;;;;;5249877;28;20024;-86
2022/04/19 10:55:14;;;;;;;6.65;4.65;;;8.00;99.90;;;;;;5249551;28;20028;-69
2022/04/19 10:58:06;;;;;;;10.15;4.50;;;8.00;99.90;;;;;;5250066;28;20025;-70
2022/04/19 11:00:47;;;;;;;5.25;3.55;;;7.90;99.90;;;;;;5249802;28;20104;-86
2022/04/19 11:03:38;;;;;;;10.00;3.65;;;8.20;99.90;;;;;;5249606;28;20025;-68
2022/04/19 11:06:30;;;;;;;;;;;7.80;99.90;;;;;;5249455;28;20072;-69
2022/04/19 11:09:16;;;;;;;8.73;4.35;;;7.90;99.90;;;;;;5248058;28;19916;-69
2022/04/19 11:11:50;;;;;;;14.40;7.35;;;8.00;99.90;;;;;;5249151;28;20021;-69
2022/04/19 11:14:23;;;;;;;7.35;4.80;;;8.30;99.90;;;;;;5248713;28;20024;-69
2022/04/19 11:17:24;;;;;;;7.57;4.10;;;7.70;99.90;;;;;;5248886;28;20032;-84
2022/04/19 11:20:07;;;;;;;;;;;7.60;99.90;;;;;;5249577;28;20035;-87
2022/04/19 11:22:57;;;;;;;8.57;4.20;;;7.50;99.90;;;;;;5248513;28;20352;-85
2022/04/19 11:25:42;;;;;;;10.82;4.78;;;7.70;99.90;;;;;;5248265;28;20017;-87
2022/04/19 11:28:19;;;;;;;9.05;3.72;;;7.70;99.90;;;;;;5248407;28;20123;-83
2022/04/19 11:30:50;;;;;;;5.05;3.17;;;7.50;99.90;;;;;;5248655;28;20027;-86
2022/04/19 11:33:25;;;;;;;5.50;3.25;;;7.90;99.90;;;;;;5248290;28;20033;-69
2022/04/19 11:36:03;;;;;;;7.13;4.68;;;7.90;99.90;;;;;;5248391;28;20085;-70
2022/04/19 11:38:39;;;;;;;9.00;5.15;;;7.80;99.90;;;;;;5248500;28;20029;-68
2022/04/19 11:46:51;;;;;;;6.93;3.40;;;7.70;99.90;;;;;;5248536;28;20537;-69
2022/04/19 11:49:29;;;;;;;6.22;4.07;;;7.70;99.90;;;;;;5248592;28;20078;-69
2022/04/19 11:52:02;;;;;;;9.07;4.60;;;7.90;99.90;;;;;;5248386;28;20044;-69
2022/04/19 11:54:34;;;;;;;6.20;2.78;;;8.00;99.90;;;;;;5247173;28;20024;-69
2022/04/19 11:57:07;;;;;;;6.60;3.13;;;7.90;99.90;;;;;;5247165;28;20028;-69
2022/04/19 11:59:42;;;;;;;6.80;2.92;;;8.10;99.90;;;;;;5248286;28;20032;-69
2022/04/19 12:02:17;;;;;;;7.88;3.00;;;8.10;99.90;;;;;;5248384;28;20013;-69
2022/04/19 12:04:48;;;;;;;7.63;3.00;;;8.10;99.90;;;;;;5248111;28;20036;-69
2022/04/19 12:07:20;;;;;;;4.10;2.40;;;8.10;99.90;;;;;;5246922;28;20036;-69
2022/04/19 12:09:52;;;;;;;7.13;3.20;;;8.00;99.90;;;;;;5248416;28;20024;-69
2022/04/19 12:12:23;;;;;;;7.28;3.83;;;7.80;99.90;;;;;;5248356;28;20535;-69
2022/04/19 12:14:54;;;;;;;5.82;3.05;;;7.80;99.90;;;;;;5248471;28;20326;-69
2022/04/19 12:17:25;;;;;;;8.15;3.67;;;8.00;99.90;;;;;;5247039;28;20032;-69
2022/04/19 12:20:04;;;;;;;7.65;3.38;;;7.90;99.90;;;;;;5248335;28;20111;-69
2022/04/19 12:22:35;;;;;;;6.25;3.25;;;8.00;99.90;;;;;;5248227;28;20029;-69
2022/04/19 12:25:07;;;;;;;7.47;4.60;;;8.00;99.90;;;;;;5247113;28;20025;-69
2022/04/19 12:27:39;;;;;;;7.70;3.30;;;7.90;99.90;;;;;;5248014;28;20036;-69
2022/04/19 12:30:12;;;;;;;4.07;2.28;;;8.20;99.90;;;;;;5248045;28;20032;-69
2022/04/19 12:32:59;;;;;;;4.00;2.53;;;8.20;99.90;;;;;;5247970;28;20019;-70
2022/04/19 12:35:34;;;;;;;9.35;3.55;;;8.20;99.90;;;;;;5249982;28;20036;-69
2022/04/19 12:38:09;;;;;;;5.35;3.83;;;8.20;99.90;;;;;;5251250;28;20444;-69
2022/04/19 12:40:40;;;;;;;7.18;4.43;;;8.10;99.90;;;;;;5252231;28;20004;-68
2022/04/19 12:43:14;;;;;;;9.13;3.10;;;7.90;99.90;;;;;;5252339;28;20036;-69
2022/04/19 12:45:46;;;;;;;33.30;13.68;;;8.10;99.90;;;;;;5252112;28;20044;-69
2022/04/19 12:48:18;;;;;;;9.18;3.63;;;8.20;99.90;;;;;;5252125;28;20040;-69
2022/04/19 12:51:04;;;;;;;6.35;3.95;;;8.10;99.90;;;;;;5252062;28;20013;-69
2022/04/19 12:53:40;;;;;;;4.85;2.83;;;8.20;99.90;;;;;;5251993;28;20028;-69
2022/04/19 12:56:11;;;;;;;6.15;3.25;;;8.30;99.90;;;;;;5252054;28;20104;-69
2022/04/19 12:58:45;;;;;;;7.75;3.58;;;8.20;99.90;;;;;;5251950;28;20021;-69
2022/04/19 13:01:16;;;;;;;12.48;5.88;;;8.20;99.90;;;;;;5252126;28;20093;-69
2022/04/19 13:03:47;;;;;;;6.72;3.83;;;8.20;99.90;;;;;;5251785;28;20231;-68
2022/04/19 13:14:52;;;;;;;5.68;3.13;;;8.00;99.90;;;;;;5240254;28;20035;-72
2022/04/19 13:17:24;;;;;;;5.43;3.17;;;8.00;99.90;;;;;;5240055;28;20025;-81
2022/04/19 13:19:54;;;;;;;6.65;3.58;;;8.10;99.90;;;;;;5234998;28;20129;-70
2022/04/19 13:22:25;;;;;;;7.70;3.65;;;8.10;99.90;;;;;;5238525;28;20108;-73
2022/04/19 13:24:57;;;;;;;5.70;3.95;;;8.10;99.90;;;;;;5239956;28;20017;-82
2022/04/19 13:27:33;;;;;;;8.05;4.40;;;8.10;99.90;;;;;;5238552;28;20021;-84
2022/04/19 13:30:07;;;;;;;9.02;5.70;;;8.20;99.90;;;;;;5238259;28;20036;-83
2022/04/19 13:32:41;;;;;;;12.40;6.57;;;8.10;99.90;;;;;;5238183;28;20071;-79
2022/04/19 13:35:12;;;;;;;9.27;3.45;;;8.10;99.90;;;;;;5238906;28;20475;-87
2022/04/19 13:40:32;;;;;;;8.98;4.72;;;7.80;99.90;;;;;;5238910;28;20071;-69
2022/04/19 13:43:02;;;;;;;8.80;4.13;;;7.80;99.90;;;;;;5238090;28;20021;-71
2022/04/19 13:45:35;;;;;;;7.57;4.05;;;7.80;99.90;;;;;;5238567;28;20040;-75
2022/04/19 13:48:06;;;;;;;9.25;4.85;;;7.80;99.90;;;;;;5238259;28;20032;-75
2022/04/19 13:50:37;;;;;;;7.43;4.55;;;7.80;99.90;;;;;;5239318;28;20139;-85
2022/04/19 13:53:07;;;;;;;9.23;5.00;;;7.90;99.90;;;;;;5236689;28;20111;-84
2022/04/19 13:55:38;;;;;;;7.43;4.60;;;7.70;99.90;;;;;;5237757;28;20021;-80
2022/04/19 13:58:10;;;;;;;6.22;4.20;;;7.80;99.90;;;;;;5238962;28;20379;-84
2022/04/19 14:00:40;;;;;;;10.32;5.10;;;7.90;99.90;;;;;;5232077;28;20053;-80
2022/04/19 14:03:11;;;;;;;14.18;5.40;;;8.00;99.90;;;;;;5230021;28;20053;-82
2022/04/19 14:05:42;;;;;;;9.65;5.05;;;8.10;99.90;;;;;;5229654;28;20106;-88
2022/04/19 14:08:13;;;;;;;6.22;3.53;;;7.80;99.90;;;;;;5229677;28;20510;-85
2022/04/19 14:10:44;;;;;;;7.40;4.40;;;7.70;99.90;;;;;;5229874;28;20104;-69
2022/04/19 14:13:14;;;;;;;9.10;4.47;;;7.70;99.90;;;;;;5229650;28;20052;-69